sensor_id;sensor_type;location;lat;lon;timestamp;P1;durP1;ratioP1;P2;durP2;ratioP2
9671;SDS011;4874;43.568;27.824;2022-12-07T00:03:40;5.93;;;1.90;;
9671;SDS011;4874;43.568;27.824;2022-12-07T00:06:08;5.10;;;2.28;;
9671;SDS011;4874;43.568;27.824;2022-12-07T00:08:36;4.10;;;1.85;;
9671;SDS011;4874;43.568;27.824;2022-12-07T00:11:05;4.93;;;1.85;;
9671;SDS011;4874;43.568;27.824;2022-12-07T00:13:33;4.18;;;2.15;;
9671;SDS011;4874;43.568;27.824;2022-12-07T00:16:05;3.67;;;1.75;;
9671;SDS011;4874;43.568;27.824;2022-12-07T00:18:34;5.75;;;2.10;;
9671;SDS011;4874;43.568;27.824;2022-12-07T00:21:01;4.20;;;2.20;;
9671;SDS011;4874;43.568;27.824;2022-12-07T00:23:38;5.57;;;2.03;;
9671;SDS011;4874;43.568;27.824;2022-12-07T00:26:07;4.88;;;1.90;;
9671;SDS011;4874;43.568;27.824;2022-12-07T00:28:37;6.70;;;2.45;;
9671;SDS011;4874;43.568;27.824;2022-12-07T00:31:06;5.50;;;2.40;;
9671;SDS011;4874;43.568;27.824;2022-12-07T00:33:35;4.28;;;2.08;;
9671;SDS011;4874;43.568;27.824;2022-12-07T00:36:03;4.45;;;2.05;;
9671;SDS011;4874;43.568;27.824;2022-12-07T00:38:33;6.05;;;1.98;;
9671;SDS011;4874;43.568;27.824;2022-12-07T00:41:02;5.93;;;2.20;;
9671;SDS011;4874;43.568;27.824;2022-12-07T00:43:34;5.53;;;1.98;;
9671;SDS011;4874;43.568;27.824;2022-12-07T00:48:27;4.15;;;2.15;;
9671;SDS011;4874;43.568;27.824;2022-12-07T00:50:54;5.82;;;2.60;;
9671;SDS011;4874;43.568;27.824;2022-12-07T00:53:22;6.13;;;2.10;;
9671;SDS011;4874;43.568;27.824;2022-12-07T00:55:49;3.90;;;2.13;;
9671;SDS011;4874;43.568;27.824;2022-12-07T00:58:15;5.47;;;2.40;;
9671;SDS011;4874;43.568;27.824;2022-12-07T01:03:10;4.53;;;2.60;;
9671;SDS011;4874;43.568;27.824;2022-12-07T01:05:39;4.40;;;2.58;;
9671;SDS011;4874;43.568;27.824;2022-12-07T01:08:06;6.75;;;3.45;;
9671;SDS011;4874;43.568;27.824;2022-12-07T01:10:33;5.40;;;2.72;;
9671;SDS011;4874;43.568;27.824;2022-12-07T01:15:26;7.22;;;2.90;;
9671;SDS011;4874;43.568;27.824;2022-12-07T01:17:53;6.00;;;2.95;;
9671;SDS011;4874;43.568;27.824;2022-12-07T01:20:21;6.50;;;3.10;;
9671;SDS011;4874;43.568;27.824;2022-12-07T01:22:47;5.97;;;3.03;;
9671;SDS011;4874;43.568;27.824;2022-12-07T01:25:15;5.45;;;3.20;;
9671;SDS011;4874;43.568;27.824;2022-12-07T01:27:41;5.68;;;3.65;;
9671;SDS011;4874;43.568;27.824;2022-12-07T01:30:10;5.57;;;3.55;;
9671;SDS011;4874;43.568;27.824;2022-12-07T01:32:37;5.00;;;3.17;;
9671;SDS011;4874;43.568;27.824;2022-12-07T01:37:34;6.70;;;3.63;;
9671;SDS011;4874;43.568;27.824;2022-12-07T01:40:02;7.78;;;3.65;;
9671;SDS011;4874;43.568;27.824;2022-12-07T01:42:30;7.78;;;4.07;;
9671;SDS011;4874;43.568;27.824;2022-12-07T01:47:53;8.07;;;4.95;;
9671;SDS011;4874;43.568;27.824;2022-12-07T01:50:24;6.70;;;3.67;;
9671;SDS011;4874;43.568;27.824;2022-12-07T01:52:53;9.27;;;4.55;;
9671;SDS011;4874;43.568;27.824;2022-12-07T01:55:23;7.00;;;4.20;;
9671;SDS011;4874;43.568;27.824;2022-12-07T01:57:50;8.48;;;4.63;;
9671;SDS011;4874;43.568;27.824;2022-12-07T02:00:20;9.25;;;4.40;;
9671;SDS011;4874;43.568;27.824;2022-12-07T02:05:35;9.93;;;4.25;;
9671;SDS011;4874;43.568;27.824;2022-12-07T02:08:04;8.48;;;4.28;;
9671;SDS011;4874;43.568;27.824;2022-12-07T02:10:31;7.80;;;4.65;;
9671;SDS011;4874;43.568;27.824;2022-12-07T02:13:04;7.47;;;4.47;;
9671;SDS011;4874;43.568;27.824;2022-12-07T02:18:16;9.60;;;5.82;;
9671;SDS011;4874;43.568;27.824;2022-12-07T02:21:01;8.80;;;4.80;;
9671;SDS011;4874;43.568;27.824;2022-12-07T02:32:02;8.55;;;5.15;;
9671;SDS011;4874;43.568;27.824;2022-12-07T02:34:42;10.38;;;4.68;;
9671;SDS011;4874;43.568;27.824;2022-12-07T02:37:19;8.38;;;4.50;;
9671;SDS011;4874;43.568;27.824;2022-12-07T02:40:39;8.18;;;5.45;;
9671;SDS011;4874;43.568;27.824;2022-12-07T02:42:50;11.30;;;4.70;;
9671;SDS011;4874;43.568;27.824;2022-12-07T02:45:26;8.15;;;5.30;;
9671;SDS011;4874;43.568;27.824;2022-12-07T02:47:56;7.68;;;4.43;;
9671;SDS011;4874;43.568;27.824;2022-12-07T02:50:26;8.88;;;4.30;;
9671;SDS011;4874;43.568;27.824;2022-12-07T02:52:53;9.20;;;5.05;;
9671;SDS011;4874;43.568;27.824;2022-12-07T02:55:22;10.00;;;6.00;;
9671;SDS011;4874;43.568;27.824;2022-12-07T02:58:06;10.82;;;5.57;;
9671;SDS011;4874;43.568;27.824;2022-12-07T03:01:09;8.30;;;5.32;;
9671;SDS011;4874;43.568;27.824;2022-12-07T03:03:48;9.60;;;5.35;;
9671;SDS011;4874;43.568;27.824;2022-12-07T03:06:28;10.93;;;5.85;;
9671;SDS011;4874;43.568;27.824;2022-12-07T03:09:06;10.20;;;5.10;;
9671;SDS011;4874;43.568;27.824;2022-12-07T03:11:51;9.93;;;5.93;;
9671;SDS011;4874;43.568;27.824;2022-12-07T03:14:34;10.50;;;5.18;;
9671;SDS011;4874;43.568;27.824;2022-12-07T03:19:42;11.70;;;6.32;;
9671;SDS011;4874;43.568;27.824;2022-12-07T03:22:11;10.30;;;5.93;;
9671;SDS011;4874;43.568;27.824;2022-12-07T03:24:44;11.85;;;6.53;;
9671;SDS011;4874;43.568;27.824;2022-12-07T03:27:20;12.80;;;6.75;;
9671;SDS011;4874;43.568;27.824;2022-12-07T03:29:52;11.00;;;6.22;;
9671;SDS011;4874;43.568;27.824;2022-12-07T03:32:27;12.50;;;6.63;;
9671;SDS011;4874;43.568;27.824;2022-12-07T03:35:03;14.13;;;6.25;;
9671;SDS011;4874;43.568;27.824;2022-12-07T03:37:42;11.85;;;6.40;;
9671;SDS011;4874;43.568;27.824;2022-12-07T03:42:41;11.68;;;5.63;;
9671;SDS011;4874;43.568;27.824;2022-12-07T03:45:09;12.05;;;6.95;;
9671;SDS011;4874;43.568;27.824;2022-12-07T03:47:46;10.63;;;6.35;;
9671;SDS011;4874;43.568;27.824;2022-12-07T03:52:58;12.48;;;6.53;;
9671;SDS011;4874;43.568;27.824;2022-12-07T03:55:31;13.25;;;7.60;;
9671;SDS011;4874;43.568;27.824;2022-12-07T03:58:03;15.00;;;7.80;;
9671;SDS011;4874;43.568;27.824;2022-12-07T04:00:34;16.58;;;9.27;;
9671;SDS011;4874;43.568;27.824;2022-12-07T04:03:01;17.42;;;8.02;;
9671;SDS011;4874;43.568;27.824;2022-12-07T04:05:27;13.43;;;7.50;;
9671;SDS011;4874;43.568;27.824;2022-12-07T04:07:54;15.75;;;8.05;;
9671;SDS011;4874;43.568;27.824;2022-12-07T04:12:48;17.23;;;8.02;;
9671;SDS011;4874;43.568;27.824;2022-12-07T04:15:14;13.27;;;7.60;;
9671;SDS011;4874;43.568;27.824;2022-12-07T04:20:08;12.98;;;7.70;;
9671;SDS011;4874;43.568;27.824;2022-12-07T04:22:35;14.75;;;9.10;;
9671;SDS011;4874;43.568;27.824;2022-12-07T04:25:02;15.02;;;8.15;;
9671;SDS011;4874;43.568;27.824;2022-12-07T04:27:29;15.65;;;8.10;;
9671;SDS011;4874;43.568;27.824;2022-12-07T04:32:23;16.15;;;9.07;;
9671;SDS011;4874;43.568;27.824;2022-12-07T04:34:50;14.95;;;8.25;;
9671;SDS011;4874;43.568;27.824;2022-12-07T04:37:20;13.63;;;8.45;;
9671;SDS011;4874;43.568;27.824;2022-12-07T04:39:47;17.00;;;8.52;;
9671;SDS011;4874;43.568;27.824;2022-12-07T04:42:14;16.80;;;9.10;;
9671;SDS011;4874;43.568;27.824;2022-12-07T04:47:07;17.17;;;8.05;;
9671;SDS011;4874;43.568;27.824;2022-12-07T04:52:00;17.98;;;8.57;;
9671;SDS011;4874;43.568;27.824;2022-12-07T04:54:27;15.65;;;8.57;;
9671;SDS011;4874;43.568;27.824;2022-12-07T04:56:54;18.73;;;9.73;;
9671;SDS011;4874;43.568;27.824;2022-12-07T05:01:47;20.10;;;10.90;;
9671;SDS011;4874;43.568;27.824;2022-12-07T05:04:14;17.83;;;10.00;;
9671;SDS011;4874;43.568;27.824;2022-12-07T05:06:42;15.48;;;9.30;;
9671;SDS011;4874;43.568;27.824;2022-12-07T05:09:09;18.05;;;9.70;;
9671;SDS011;4874;43.568;27.824;2022-12-07T05:11:35;16.00;;;9.45;;
9671;SDS011;4874;43.568;27.824;2022-12-07T05:14:13;17.15;;;9.32;;
9671;SDS011;4874;43.568;27.824;2022-12-07T05:16:47;17.77;;;9.80;;
9671;SDS011;4874;43.568;27.824;2022-12-07T05:19:17;17.20;;;9.30;;
9671;SDS011;4874;43.568;27.824;2022-12-07T05:21:45;18.77;;;10.10;;
9671;SDS011;4874;43.568;27.824;2022-12-07T05:24:13;16.10;;;9.18;;
9671;SDS011;4874;43.568;27.824;2022-12-07T05:26:41;17.77;;;9.15;;
9671;SDS011;4874;43.568;27.824;2022-12-07T05:29:10;16.95;;;10.00;;
9671;SDS011;4874;43.568;27.824;2022-12-07T05:31:38;17.50;;;10.25;;
9671;SDS011;4874;43.568;27.824;2022-12-07T05:34:05;27.33;;;15.55;;
9671;SDS011;4874;43.568;27.824;2022-12-07T05:38:58;18.92;;;11.10;;
9671;SDS011;4874;43.568;27.824;2022-12-07T05:41:26;19.45;;;10.63;;
9671;SDS011;4874;43.568;27.824;2022-12-07T05:44:11;29.17;;;10.63;;
9671;SDS011;4874;43.568;27.824;2022-12-07T05:46:38;18.95;;;10.48;;
9671;SDS011;4874;43.568;27.824;2022-12-07T05:51:31;22.58;;;12.73;;
9671;SDS011;4874;43.568;27.824;2022-12-07T05:53:58;22.23;;;11.82;;
9671;SDS011;4874;43.568;27.824;2022-12-07T05:56:24;24.10;;;13.10;;
9671;SDS011;4874;43.568;27.824;2022-12-07T05:58:53;22.50;;;12.18;;
9671;SDS011;4874;43.568;27.824;2022-12-07T06:01:38;19.30;;;11.20;;
9671;SDS011;4874;43.568;27.824;2022-12-07T06:04:06;22.42;;;11.80;;
9671;SDS011;4874;43.568;27.824;2022-12-07T06:06:33;21.25;;;12.25;;
9671;SDS011;4874;43.568;27.824;2022-12-07T06:08:59;23.45;;;12.38;;
9671;SDS011;4874;43.568;27.824;2022-12-07T06:14:11;22.60;;;12.52;;
9671;SDS011;4874;43.568;27.824;2022-12-07T06:16:38;25.42;;;13.75;;
9671;SDS011;4874;43.568;27.824;2022-12-07T06:21:31;25.00;;;13.15;;
9671;SDS011;4874;43.568;27.824;2022-12-07T06:26:24;24.27;;;12.70;;
9671;SDS011;4874;43.568;27.824;2022-12-07T06:28:51;21.73;;;12.18;;
9671;SDS011;4874;43.568;27.824;2022-12-07T06:33:45;27.15;;;13.73;;
9671;SDS011;4874;43.568;27.824;2022-12-07T06:36:11;23.67;;;12.15;;
9671;SDS011;4874;43.568;27.824;2022-12-07T06:41:05;23.90;;;12.18;;
9671;SDS011;4874;43.568;27.824;2022-12-07T06:43:32;23.88;;;12.45;;
9671;SDS011;4874;43.568;27.824;2022-12-07T06:48:26;22.15;;;12.02;;
9671;SDS011;4874;43.568;27.824;2022-12-07T06:53:20;23.25;;;13.02;;
9671;SDS011;4874;43.568;27.824;2022-12-07T06:55:48;22.60;;;11.93;;
9671;SDS011;4874;43.568;27.824;2022-12-07T07:00:41;24.95;;;12.52;;
9671;SDS011;4874;43.568;27.824;2022-12-07T07:05:34;24.88;;;12.20;;
9671;SDS011;4874;43.568;27.824;2022-12-07T07:10:49;29.75;;;12.40;;
9671;SDS011;4874;43.568;27.824;2022-12-07T07:13:16;22.35;;;11.57;;
9671;SDS011;4874;43.568;27.824;2022-12-07T07:18:09;25.45;;;11.30;;
9671;SDS011;4874;43.568;27.824;2022-12-07T07:20:36;22.77;;;11.43;;
9671;SDS011;4874;43.568;27.824;2022-12-07T07:23:03;19.77;;;11.70;;
9671;SDS011;4874;43.568;27.824;2022-12-07T07:25:30;16.65;;;10.30;;
9671;SDS011;4874;43.568;27.824;2022-12-07T07:27:57;20.52;;;10.75;;
9671;SDS011;4874;43.568;27.824;2022-12-07T07:30:25;23.02;;;11.43;;
9671;SDS011;4874;43.568;27.824;2022-12-07T07:32:59;18.42;;;10.52;;
9671;SDS011;4874;43.568;27.824;2022-12-07T07:35:27;18.38;;;9.65;;
9671;SDS011;4874;43.568;27.824;2022-12-07T07:37:55;15.98;;;8.73;;
9671;SDS011;4874;43.568;27.824;2022-12-07T07:40:22;17.73;;;10.10;;
9671;SDS011;4874;43.568;27.824;2022-12-07T07:42:53;16.10;;;9.48;;
9671;SDS011;4874;43.568;27.824;2022-12-07T07:45:21;17.33;;;9.32;;
9671;SDS011;4874;43.568;27.824;2022-12-07T07:47:48;19.40;;;11.90;;
9671;SDS011;4874;43.568;27.824;2022-12-07T07:50:15;23.52;;;12.52;;
9671;SDS011;4874;43.568;27.824;2022-12-07T07:52:42;18.73;;;9.85;;
9671;SDS011;4874;43.568;27.824;2022-12-07T07:55:09;17.10;;;9.95;;
9671;SDS011;4874;43.568;27.824;2022-12-07T07:57:37;40.03;;;22.55;;
9671;SDS011;4874;43.568;27.824;2022-12-07T08:00:06;33.15;;;20.65;;
9671;SDS011;4874;43.568;27.824;2022-12-07T08:02:34;19.75;;;11.63;;
9671;SDS011;4874;43.568;27.824;2022-12-07T08:07:28;18.33;;;10.48;;
9671;SDS011;4874;43.568;27.824;2022-12-07T08:09:54;17.38;;;9.52;;
9671;SDS011;4874;43.568;27.824;2022-12-07T08:14:48;18.35;;;10.55;;
9671;SDS011;4874;43.568;27.824;2022-12-07T08:17:15;18.58;;;9.32;;
9671;SDS011;4874;43.568;27.824;2022-12-07T08:22:08;13.52;;;8.15;;
9671;SDS011;4874;43.568;27.824;2022-12-07T08:24:35;13.40;;;8.02;;
9671;SDS011;4874;43.568;27.824;2022-12-07T08:27:02;13.35;;;7.10;;
9671;SDS011;4874;43.568;27.824;2022-12-07T08:29:29;14.45;;;8.85;;
9671;SDS011;4874;43.568;27.824;2022-12-07T08:34:23;22.45;;;10.60;;
9671;SDS011;4874;43.568;27.824;2022-12-07T08:39:16;16.33;;;8.27;;
9671;SDS011;4874;43.568;27.824;2022-12-07T08:41:58;13.73;;;8.75;;
9671;SDS011;4874;43.568;27.824;2022-12-07T08:46:56;12.82;;;8.13;;
9671;SDS011;4874;43.568;27.824;2022-12-07T08:49:30;18.67;;;8.80;;
9671;SDS011;4874;43.568;27.824;2022-12-07T08:52:03;21.58;;;10.77;;
9671;SDS011;4874;43.568;27.824;2022-12-07T08:54:31;18.10;;;9.85;;
9671;SDS011;4874;43.568;27.824;2022-12-07T08:57:01;17.83;;;9.82;;
9671;SDS011;4874;43.568;27.824;2022-12-07T09:01:55;18.02;;;11.27;;
9671;SDS011;4874;43.568;27.824;2022-12-07T09:04:22;21.52;;;11.18;;
9671;SDS011;4874;43.568;27.824;2022-12-07T09:06:48;19.33;;;12.00;;
9671;SDS011;4874;43.568;27.824;2022-12-07T09:11:42;23.27;;;12.23;;
9671;SDS011;4874;43.568;27.824;2022-12-07T09:14:11;27.67;;;14.98;;
9671;SDS011;4874;43.568;27.824;2022-12-07T09:16:38;24.88;;;11.68;;
9671;SDS011;4874;43.568;27.824;2022-12-07T09:19:05;24.75;;;12.10;;
9671;SDS011;4874;43.568;27.824;2022-12-07T09:21:33;24.33;;;12.98;;
9671;SDS011;4874;43.568;27.824;2022-12-07T09:24:00;25.05;;;12.02;;
9671;SDS011;4874;43.568;27.824;2022-12-07T09:26:27;27.30;;;15.23;;
9671;SDS011;4874;43.568;27.824;2022-12-07T09:28:53;24.60;;;13.52;;
9671;SDS011;4874;43.568;27.824;2022-12-07T09:33:55;26.50;;;12.30;;
9671;SDS011;4874;43.568;27.824;2022-12-07T09:36:24;22.05;;;12.13;;
9671;SDS011;4874;43.568;27.824;2022-12-07T09:38:51;20.83;;;10.63;;
9671;SDS011;4874;43.568;27.824;2022-12-07T09:41:18;18.40;;;10.35;;
9671;SDS011;4874;43.568;27.824;2022-12-07T09:43:46;22.60;;;12.18;;
9671;SDS011;4874;43.568;27.824;2022-12-07T09:46:14;18.30;;;10.30;;
9671;SDS011;4874;43.568;27.824;2022-12-07T09:48:43;20.52;;;10.45;;
9671;SDS011;4874;43.568;27.824;2022-12-07T09:51:18;17.88;;;9.55;;
9671;SDS011;4874;43.568;27.824;2022-12-07T09:53:50;18.23;;;11.00;;
9671;SDS011;4874;43.568;27.824;2022-12-07T09:56:18;21.77;;;11.38;;
9671;SDS011;4874;43.568;27.824;2022-12-07T09:58:46;24.65;;;11.93;;
9671;SDS011;4874;43.568;27.824;2022-12-07T10:01:14;24.90;;;11.50;;
9671;SDS011;4874;43.568;27.824;2022-12-07T10:04:29;21.85;;;11.73;;
9671;SDS011;4874;43.568;27.824;2022-12-07T10:06:42;26.30;;;11.52;;
9671;SDS011;4874;43.568;27.824;2022-12-07T10:09:10;25.67;;;12.63;;
9671;SDS011;4874;43.568;27.824;2022-12-07T10:14:31;12.90;;;7.85;;
9671;SDS011;4874;43.568;27.824;2022-12-07T10:17:30;14.32;;;7.93;;
9671;SDS011;4874;43.568;27.824;2022-12-07T10:20:25;15.43;;;8.63;;
9671;SDS011;4874;43.568;27.824;2022-12-07T10:23:00;17.77;;;8.73;;
9671;SDS011;4874;43.568;27.824;2022-12-07T10:25:31;18.75;;;9.23;;
9671;SDS011;4874;43.568;27.824;2022-12-07T10:38:37;13.40;;;7.80;;
9671;SDS011;4874;43.568;27.824;2022-12-07T10:41:11;15.77;;;8.52;;
9671;SDS011;4874;43.568;27.824;2022-12-07T10:43:46;19.80;;;10.25;;
9671;SDS011;4874;43.568;27.824;2022-12-07T10:46:20;21.05;;;9.43;;
9671;SDS011;4874;43.568;27.824;2022-12-07T11:00:42;20.77;;;9.80;;
9671;SDS011;4874;43.568;27.824;2022-12-07T11:03:37;19.20;;;10.00;;
9671;SDS011;4874;43.568;27.824;2022-12-07T11:06:54;19.77;;;9.05;;
9671;SDS011;4874;43.568;27.824;2022-12-07T11:12:23;22.80;;;11.55;;
9671;SDS011;4874;43.568;27.824;2022-12-07T11:17:36;19.00;;;9.10;;
9671;SDS011;4874;43.568;27.824;2022-12-07T11:20:58;15.75;;;9.35;;
9671;SDS011;4874;43.568;27.824;2022-12-07T11:28:57;20.17;;;9.57;;
9671;SDS011;4874;43.568;27.824;2022-12-07T11:34:46;19.30;;;9.73;;
9671;SDS011;4874;43.568;27.824;2022-12-07T11:37:46;21.08;;;9.80;;
9671;SDS011;4874;43.568;27.824;2022-12-07T11:45:52;19.33;;;9.88;;
9671;SDS011;4874;43.568;27.824;2022-12-07T11:48:38;21.98;;;9.20;;
9671;SDS011;4874;43.568;27.824;2022-12-07T11:51:11;18.48;;;9.60;;
9671;SDS011;4874;43.568;27.824;2022-12-07T11:53:43;23.85;;;11.95;;
9671;SDS011;4874;43.568;27.824;2022-12-07T12:03:47;22.83;;;9.65;;
9671;SDS011;4874;43.568;27.824;2022-12-07T12:06:18;18.85;;;9.30;;
9671;SDS011;4874;43.568;27.824;2022-12-07T12:08:47;18.92;;;9.52;;
9671;SDS011;4874;43.568;27.824;2022-12-07T12:15:19;20.83;;;10.27;;
9671;SDS011;4874;43.568;27.824;2022-12-07T12:20:53;20.83;;;10.07;;
9671;SDS011;4874;43.568;27.824;2022-12-07T12:26:04;20.00;;;9.55;;
9671;SDS011;4874;43.568;27.824;2022-12-07T12:46:49;27.75;;;11.38;;
9671;SDS011;4874;43.568;27.824;2022-12-07T12:51:47;16.52;;;9.57;;
9671;SDS011;4874;43.568;27.824;2022-12-07T12:54:21;19.77;;;10.15;;
9671;SDS011;4874;43.568;27.824;2022-12-07T13:18:23;32.67;;;13.52;;
9671;SDS011;4874;43.568;27.824;2022-12-07T13:23:39;22.92;;;11.43;;
9671;SDS011;4874;43.568;27.824;2022-12-07T13:29:09;24.38;;;12.27;;
9671;SDS011;4874;43.568;27.824;2022-12-07T13:31:44;27.38;;;13.77;;
9671;SDS011;4874;43.568;27.824;2022-12-07T13:34:32;26.55;;;12.82;;
9671;SDS011;4874;43.568;27.824;2022-12-07T13:37:23;24.35;;;11.65;;
9671;SDS011;4874;43.568;27.824;2022-12-07T13:39:54;26.02;;;11.40;;
9671;SDS011;4874;43.568;27.824;2022-12-07T13:42:32;23.83;;;10.07;;
9671;SDS011;4874;43.568;27.824;2022-12-07T13:48:13;25.60;;;13.02;;
9671;SDS011;4874;43.568;27.824;2022-12-07T13:50:55;21.67;;;11.20;;
9671;SDS011;4874;43.568;27.824;2022-12-07T13:53:23;23.92;;;13.52;;
9671;SDS011;4874;43.568;27.824;2022-12-07T13:55:51;25.13;;;11.88;;
9671;SDS011;4874;43.568;27.824;2022-12-07T13:58:20;24.67;;;11.60;;
9671;SDS011;4874;43.568;27.824;2022-12-07T14:00:48;24.50;;;12.35;;
9671;SDS011;4874;43.568;27.824;2022-12-07T14:13:35;24.58;;;13.38;;
9671;SDS011;4874;43.568;27.824;2022-12-07T14:16:27;33.03;;;15.18;;
9671;SDS011;4874;43.568;27.824;2022-12-07T14:19:05;24.63;;;13.57;;
9671;SDS011;4874;43.568;27.824;2022-12-07T14:24:33;29.77;;;14.10;;
9671;SDS011;4874;43.568;27.824;2022-12-07T14:27:18;27.08;;;14.48;;
9671;SDS011;4874;43.568;27.824;2022-12-07T14:29:47;33.88;;;16.27;;
9671;SDS011;4874;43.568;27.824;2022-12-07T14:32:24;30.45;;;14.75;;
9671;SDS011;4874;43.568;27.824;2022-12-07T14:37:26;34.65;;;16.17;;
9671;SDS011;4874;43.568;27.824;2022-12-07T14:39:54;38.45;;;18.40;;
9671;SDS011;4874;43.568;27.824;2022-12-07T14:42:21;28.50;;;15.88;;
9671;SDS011;4874;43.568;27.824;2022-12-07T14:44:50;32.97;;;15.90;;
9671;SDS011;4874;43.568;27.824;2022-12-07T14:50:04;28.90;;;16.38;;
9671;SDS011;4874;43.568;27.824;2022-12-07T14:52:31;33.38;;;18.38;;
9671;SDS011;4874;43.568;27.824;2022-12-07T14:55:26;31.40;;;18.00;;
9671;SDS011;4874;43.568;27.824;2022-12-07T14:57:54;33.22;;;18.30;;
9671;SDS011;4874;43.568;27.824;2022-12-07T15:00:23;32.22;;;17.48;;
9671;SDS011;4874;43.568;27.824;2022-12-07T15:02:51;31.40;;;17.80;;
9671;SDS011;4874;43.568;27.824;2022-12-07T15:05:19;35.30;;;18.38;;
9671;SDS011;4874;43.568;27.824;2022-12-07T15:07:46;33.35;;;17.38;;
9671;SDS011;4874;43.568;27.824;2022-12-07T15:10:24;37.38;;;18.73;;
9671;SDS011;4874;43.568;27.824;2022-12-07T15:12:58;35.97;;;19.58;;
9671;SDS011;4874;43.568;27.824;2022-12-07T15:15:46;35.17;;;18.90;;
9671;SDS011;4874;43.568;27.824;2022-12-07T15:18:15;35.35;;;19.42;;
9671;SDS011;4874;43.568;27.824;2022-12-07T15:20:42;39.28;;;19.48;;
9671;SDS011;4874;43.568;27.824;2022-12-07T15:23:10;34.30;;;18.77;;
9671;SDS011;4874;43.568;27.824;2022-12-07T15:25:42;36.92;;;19.52;;
9671;SDS011;4874;43.568;27.824;2022-12-07T15:28:10;42.17;;;20.42;;
9671;SDS011;4874;43.568;27.824;2022-12-07T15:33:04;40.70;;;21.90;;
9671;SDS011;4874;43.568;27.824;2022-12-07T15:37:57;37.83;;;20.05;;
9671;SDS011;4874;43.568;27.824;2022-12-07T15:42:51;45.33;;;23.27;;
9671;SDS011;4874;43.568;27.824;2022-12-07T15:45:17;34.83;;;19.73;;
9671;SDS011;4874;43.568;27.824;2022-12-07T15:50:31;40.92;;;22.17;;
9671;SDS011;4874;43.568;27.824;2022-12-07T15:55:24;42.95;;;21.80;;
9671;SDS011;4874;43.568;27.824;2022-12-07T15:57:53;42.72;;;22.33;;
9671;SDS011;4874;43.568;27.824;2022-12-07T16:00:20;50.45;;;24.60;;
9671;SDS011;4874;43.568;27.824;2022-12-07T16:02:47;44.58;;;24.73;;
9671;SDS011;4874;43.568;27.824;2022-12-07T16:07:40;45.33;;;26.33;;
9671;SDS011;4874;43.568;27.824;2022-12-07T16:12:34;52.63;;;27.52;;
9671;SDS011;4874;43.568;27.824;2022-12-07T16:17:27;53.58;;;28.50;;
9671;SDS011;4874;43.568;27.824;2022-12-07T16:22:21;52.80;;;26.17;;
9671;SDS011;4874;43.568;27.824;2022-12-07T16:27:14;56.28;;;29.45;;
9671;SDS011;4874;43.568;27.824;2022-12-07T16:29:41;61.53;;;31.20;;
9671;SDS011;4874;43.568;27.824;2022-12-07T16:32:08;59.42;;;31.48;;
9671;SDS011;4874;43.568;27.824;2022-12-07T16:34:36;56.50;;;29.13;;
9671;SDS011;4874;43.568;27.824;2022-12-07T16:41:58;66.40;;;31.35;;
9671;SDS011;4874;43.568;27.824;2022-12-07T16:44:24;60.42;;;34.50;;
9671;SDS011;4874;43.568;27.824;2022-12-07T16:46:51;79.50;;;42.13;;
9671;SDS011;4874;43.568;27.824;2022-12-07T16:51:45;95.28;;;47.67;;
9671;SDS011;4874;43.568;27.824;2022-12-07T16:54:13;82.43;;;44.78;;
9671;SDS011;4874;43.568;27.824;2022-12-07T16:56:40;67.00;;;36.20;;
9671;SDS011;4874;43.568;27.824;2022-12-07T16:59:07;58.40;;;30.48;;
9671;SDS011;4874;43.568;27.824;2022-12-07T17:01:34;54.67;;;30.50;;
9671;SDS011;4874;43.568;27.824;2022-12-07T17:04:02;47.00;;;27.73;;
9671;SDS011;4874;43.568;27.824;2022-12-07T17:06:30;48.80;;;28.67;;
9671;SDS011;4874;43.568;27.824;2022-12-07T17:08:57;50.00;;;28.00;;
9671;SDS011;4874;43.568;27.824;2022-12-07T17:11:29;47.42;;;26.25;;
9671;SDS011;4874;43.568;27.824;2022-12-07T17:13:59;47.47;;;25.08;;
9671;SDS011;4874;43.568;27.824;2022-12-07T17:16:44;45.50;;;24.77;;
9671;SDS011;4874;43.568;27.824;2022-12-07T17:19:12;46.53;;;23.13;;
9671;SDS011;4874;43.568;27.824;2022-12-07T17:21:41;48.83;;;25.23;;
9671;SDS011;4874;43.568;27.824;2022-12-07T17:24:10;50.85;;;26.40;;
9671;SDS011;4874;43.568;27.824;2022-12-07T17:26:39;46.40;;;25.55;;
9671;SDS011;4874;43.568;27.824;2022-12-07T17:29:06;46.40;;;25.42;;
9671;SDS011;4874;43.568;27.824;2022-12-07T17:31:35;49.38;;;24.65;;
9671;SDS011;4874;43.568;27.824;2022-12-07T17:34:02;40.60;;;24.27;;
9671;SDS011;4874;43.568;27.824;2022-12-07T17:36:30;44.58;;;25.92;;
9671;SDS011;4874;43.568;27.824;2022-12-07T17:38:58;38.65;;;24.25;;
9671;SDS011;4874;43.568;27.824;2022-12-07T17:44:14;39.33;;;20.20;;
9671;SDS011;4874;43.568;27.824;2022-12-07T17:46:42;43.03;;;21.88;;
9671;SDS011;4874;43.568;27.824;2022-12-07T17:49:09;35.67;;;19.92;;
9671;SDS011;4874;43.568;27.824;2022-12-07T17:51:37;30.92;;;18.90;;
9671;SDS011;4874;43.568;27.824;2022-12-07T17:54:22;31.85;;;19.67;;
9671;SDS011;4874;43.568;27.824;2022-12-07T17:59:15;31.77;;;17.83;;
9671;SDS011;4874;43.568;27.824;2022-12-07T18:01:43;31.13;;;16.77;;
9671;SDS011;4874;43.568;27.824;2022-12-07T18:04:10;54.70;;;32.10;;
9671;SDS011;4874;43.568;27.824;2022-12-07T18:06:38;26.27;;;15.93;;
9671;SDS011;4874;43.568;27.824;2022-12-07T18:11:33;32.63;;;16.15;;
9671;SDS011;4874;43.568;27.824;2022-12-07T18:14:00;27.02;;;14.40;;
9671;SDS011;4874;43.568;27.824;2022-12-07T18:16:27;29.30;;;15.02;;
9671;SDS011;4874;43.568;27.824;2022-12-07T18:18:58;30.27;;;14.65;;
9671;SDS011;4874;43.568;27.824;2022-12-07T18:21:27;28.95;;;16.38;;
9671;SDS011;4874;43.568;27.824;2022-12-07T18:23:55;30.88;;;14.85;;
9671;SDS011;4874;43.568;27.824;2022-12-07T18:26:24;34.55;;;19.77;;
9671;SDS011;4874;43.568;27.824;2022-12-07T18:28:51;32.72;;;17.45;;
9671;SDS011;4874;43.568;27.824;2022-12-07T18:31:19;30.20;;;16.10;;
9671;SDS011;4874;43.568;27.824;2022-12-07T18:33:46;193.20;;;116.75;;
9671;SDS011;4874;43.568;27.824;2022-12-07T18:36:14;33.65;;;18.90;;
9671;SDS011;4874;43.568;27.824;2022-12-07T18:38:42;26.13;;;14.38;;
9671;SDS011;4874;43.568;27.824;2022-12-07T18:41:10;27.20;;;13.88;;
9671;SDS011;4874;43.568;27.824;2022-12-07T18:43:39;27.55;;;14.18;;
9671;SDS011;4874;43.568;27.824;2022-12-07T18:46:11;33.70;;;15.07;;
9671;SDS011;4874;43.568;27.824;2022-12-07T18:48:41;23.85;;;13.27;;
9671;SDS011;4874;43.568;27.824;2022-12-07T18:51:10;29.08;;;15.57;;
9671;SDS011;4874;43.568;27.824;2022-12-07T18:53:38;28.63;;;15.48;;
9671;SDS011;4874;43.568;27.824;2022-12-07T18:56:07;33.70;;;16.17;;
9671;SDS011;4874;43.568;27.824;2022-12-07T18:58:48;130.93;;;77.55;;
9671;SDS011;4874;43.568;27.824;2022-12-07T19:01:35;36.40;;;17.92;;
9671;SDS011;4874;43.568;27.824;2022-12-07T19:06:29;24.58;;;13.40;;
9671;SDS011;4874;43.568;27.824;2022-12-07T19:08:56;23.73;;;13.25;;
9671;SDS011;4874;43.568;27.824;2022-12-07T19:11:27;28.52;;;14.25;;
9671;SDS011;4874;43.568;27.824;2022-12-07T19:14:21;25.98;;;14.32;;
9671;SDS011;4874;43.568;27.824;2022-12-07T19:16:53;26.45;;;13.57;;
9671;SDS011;4874;43.568;27.824;2022-12-07T19:19:22;34.28;;;13.40;;
9671;SDS011;4874;43.568;27.824;2022-12-07T19:21:55;31.30;;;14.57;;
9671;SDS011;4874;43.568;27.824;2022-12-07T19:24:21;27.65;;;16.08;;
9671;SDS011;4874;43.568;27.824;2022-12-07T19:26:49;27.23;;;15.43;;
9671;SDS011;4874;43.568;27.824;2022-12-07T19:29:17;32.17;;;16.08;;
9671;SDS011;4874;43.568;27.824;2022-12-07T19:31:44;33.30;;;17.05;;
9671;SDS011;4874;43.568;27.824;2022-12-07T19:34:11;30.83;;;15.52;;
9671;SDS011;4874;43.568;27.824;2022-12-07T19:36:43;26.85;;;14.77;;
9671;SDS011;4874;43.568;27.824;2022-12-07T19:39:11;31.48;;;15.10;;
9671;SDS011;4874;43.568;27.824;2022-12-07T19:41:41;29.13;;;15.30;;
9671;SDS011;4874;43.568;27.824;2022-12-07T19:44:10;30.42;;;16.45;;